Time;durP1;ratioP1;P1;durP2;ratioP2;P2;SDS_P1;SDS_P2;PMS_P1;PMS_P2;Temp;Humidity;BMP_temperature;BMP_pressure;BME280_temperature;BME280_humidity;BME280_pressure;Samples;Min_cycle;Max_cycle;Signal;HPM_P1;HPM_P2
2022/02/23 00:02:24;;;;;;;2.28;2.08;;;;;;;;;;5027492;28;20057;-80
2022/02/23 00:04:52;;;;;;;1.60;1.50;;;;;;;;;;5026206;28;20049;-79
2022/02/23 00:07:20;;;;;;;4.03;1.63;;;;;;;;;;5026722;28;20072;-79
2022/02/23 00:09:48;;;;;;;4.10;1.60;;;;;;;;;;5026444;28;20061;-79
2022/02/23 00:12:17;;;;;;;2.47;1.50;;;;;;;;;;5026532;28;20057;-80
2022/02/23 00:14:54;;;;;;;1.48;1.38;;;;;;;;;;5026688;28;20049;-79
2022/02/23 00:17:25;;;;;;;5.82;1.55;;;;;;;;;;5008770;28;20057;-81
2022/02/23 00:19:54;;;;;;;2.00;1.73;;;;;;;;;;5024510;28;20545;-81
2022/02/23 00:22:22;;;;;;;11.32;2.08;;;;;;;;;;5026872;28;20479;-81
2022/02/23 00:24:50;;;;;;;1.92;1.50;;;;;;;;;;5026261;28;20057;-80
2022/02/23 00:27:18;;;;;;;3.25;1.85;;;;;;;;;;5026710;28;20053;-80
2022/02/23 00:29:47;;;;;;;3.13;1.65;;;;;;;;;;5024711;28;20049;-80
2022/02/23 00:32:15;;;;;;;2.00;1.80;;;;;;;;;;5053992;28;20045;-79
2022/02/23 00:34:47;;;;;;;4.82;2.22;;;;;;;;;;5066846;28;20045;-80
2022/02/23 00:37:15;;;;;;;4.47;2.38;;;;;;;;;;5058067;28;20045;-82
2022/02/23 00:39:43;;;;;;;2.15;1.80;;;;;;;;;;5045696;28;20048;-80
2022/02/23 00:42:11;;;;;;;3.05;1.65;;;;;;;;;;5046309;28;20063;-81
2022/02/23 00:44:40;;;;;;;3.97;2.22;;;;;;;;;;5044596;28;20056;-82
2022/02/23 00:47:10;;;;;;;4.97;2.58;;;;;;;;;;5046536;28;20060;-82
2022/02/23 00:49:38;;;;;;;3.38;1.63;;;;;;;;;;5045559;28;20049;-81
2022/02/23 00:52:06;;;;;;;2.90;2.30;;;;;;;;;;5045913;28;20056;-82
2022/02/23 00:54:34;;;;;;;1.38;1.27;;;;;;;;;;5046307;28;20853;-81
2022/02/23 00:57:04;;;;;;;3.42;1.65;;;;;;;;;;5030310;28;20045;-81
2022/02/23 00:59:32;;;;;;;1.08;1.08;;;;;;;;;;5025365;28;20046;-81
2022/02/23 01:02:02;;;;;;;1.83;1.70;;;;;;;;;;5026424;28;20049;-82
2022/02/23 01:04:34;;;;;;;1.02;1.02;;;;;;;;;;5025770;28;20384;-81
2022/02/23 01:07:02;;;;;;;2.38;1.38;;;;;;;;;;5026545;28;20052;-82
2022/02/23 01:09:30;;;;;;;2.90;1.10;;;;;;;;;;5040150;28;20052;-83
2022/02/23 01:11:59;;;;;;;3.17;1.88;;;;;;;;;;5065454;28;20048;-81
2022/02/23 01:14:27;;;;;;;2.15;1.20;;;;;;;;;;5065876;28;20052;-85
2022/02/23 01:16:58;;;;;;;1.23;1.20;;;;;;;;;;5065510;28;20048;-83
2022/02/23 01:19:26;;;;;;;17.67;2.33;;;;;;;;;;5065604;28;20045;-81
2022/02/23 01:21:58;;;;;;;1.48;1.45;;;;;;;;;;5065915;28;20052;-83
2022/02/23 01:24:29;;;;;;;4.22;1.17;;;;;;;;;;5049411;28;20049;-83
2022/02/23 01:26:56;;;;;;;3.90;2.53;;;;;;;;;;5046505;28;20060;-83
2022/02/23 01:29:24;;;;;;;2.05;1.95;;;;;;;;;;5045066;28;20045;-82
2022/02/23 01:31:52;;;;;;;5.03;1.60;;;;;;;;;;5045639;28;20048;-83
2022/02/23 01:34:20;;;;;;;2.88;1.98;;;;;;;;;;5045890;28;20060;-82
2022/02/23 01:36:48;;;;;;;1.60;1.08;;;;;;;;;;5045425;28;20048;-82
2022/02/23 01:39:16;;;;;;;1.58;1.33;;;;;;;;;;5045529;28;20049;-83
2022/02/23 01:41:45;;;;;;;1.98;1.23;;;;;;;;;;5027215;28;20056;-81
2022/02/23 01:44:13;;;;;;;3.90;1.42;;;;;;;;;;5026998;28;20495;-81
2022/02/23 01:46:41;;;;;;;6.10;1.10;;;;;;;;;;5045911;28;20049;-81
2022/02/23 01:49:10;;;;;;;3.63;1.73;;;;;;;;;;5045070;28;20052;-81
2022/02/23 01:51:39;;;;;;;1.52;1.05;;;;;;;;;;5046197;28;20049;-82
2022/02/23 01:54:08;;;;;;;2.13;1.38;;;;;;;;;;5065973;28;20092;-81
2022/02/23 01:56:36;;;;;;;1.00;0.82;;;;;;;;;;5050466;28;20483;-83
2022/02/23 01:59:04;;;;;;;1.13;1.13;;;;;;;;;;5028750;28;20045;-81
2022/02/23 02:01:32;;;;;;;1.27;1.27;;;;;;;;;;5030790;28;20495;-82
2022/02/23 02:04:00;;;;;;;24.67;6.22;;;;;;;;;;5060928;28;20061;-82
2022/02/23 02:06:28;;;;;;;2.08;1.25;;;;;;;;;;5069239;28;20044;-81
2022/02/23 02:08:56;;;;;;;0.95;0.95;;;;;;;;;;5068452;28;20508;-84
2022/02/23 02:11:24;;;;;;;1.65;1.55;;;;;;;;;;5068481;28;20500;-81
2022/02/23 02:13:52;;;;;;;1.13;1.13;;;;;;;;;;5068378;28;20040;-83
2022/02/23 02:16:20;;;;;;;1.65;0.82;;;;;;;;;;5068475;28;20049;-82
2022/02/23 02:18:48;;;;;;;2.05;1.20;;;;;;;;;;5068790;28;20691;-81
2022/02/23 02:21:16;;;;;;;1.95;1.67;;;;;;;;;;5068658;28;20064;-81
2022/02/23 02:23:44;;;;;;;3.53;1.48;;;;;;;;;;5068613;28;20040;-82
2022/02/23 02:26:12;;;;;;;12.05;1.80;;;;;;;;;;5069221;28;20047;-83
2022/02/23 02:28:40;;;;;;;1.38;1.33;;;;;;;;;;5067335;28;20060;-83
2022/02/23 02:31:08;;;;;;;3.30;1.40;;;;;;;;;;5058952;28;20045;-82
2022/02/23 02:33:36;;;;;;;1.58;1.48;;;;;;;;;;5048403;28;20053;-83
2022/02/23 02:36:04;;;;;;;1.45;1.35;;;;;;;;;;5047300;28;20041;-82
2022/02/23 02:38:32;;;;;;;0.95;0.90;;;;;;;;;;5048929;28;20048;-83
2022/02/23 02:41:00;;;;;;;1.30;1.05;;;;;;;;;;5028091;28;20042;-81
2022/02/23 02:43:28;;;;;;;0.90;0.90;;;;;;;;;;5027703;28;20049;-81
2022/02/23 02:45:57;;;;;;;1.50;1.27;;;;;;;;;;5045299;28;20406;-81
2022/02/23 02:48:25;;;;;;;0.90;0.90;;;;;;;;;;5047877;28;20059;-81
2022/02/23 02:50:53;;;;;;;1.30;1.15;;;;;;;;;;5048850;28;20045;-82
2022/02/23 02:53:24;;;;;;;8.02;1.13;;;;;;;;;;5047529;28;20589;-82
2022/02/23 02:55:54;;;;;;;1.08;1.00;;;;;;;;;;5047706;28;20044;-83
2022/02/23 02:58:29;;;;;;;1.30;1.00;;;;;;;;;;5044300;28;20048;-84
2022/02/23 03:00:58;;;;;;;1.80;1.25;;;;;;;;;;5048007;28;20056;-83
2022/02/23 03:03:36;;;;;;;1.60;1.50;;;;;;;;;;5046958;28;20056;-83
2022/02/23 03:06:27;;;;;;;1.42;1.33;;;;;;;;;;5030190;28;20052;-83
2022/02/23 03:08:55;;;;;;;2.08;1.88;;;;;;;;;;5046767;28;20068;-82
2022/02/23 03:11:24;;;;;;;0.80;0.80;;;;;;;;;;5047829;28;20052;-83
2022/02/23 03:13:52;;;;;;;1.05;1.05;;;;;;;;;;5009867;28;20046;-85
2022/02/23 03:16:21;;;;;;;1.45;1.35;;;;;;;;;;5038921;28;20048;-83
2022/02/23 03:18:49;;;;;;;1.52;1.42;;;;;;;;;;5047399;28;20052;-83
2022/02/23 03:21:17;;;;;;;2.72;1.00;;;;;;;;;;5029612;28;20041;-82
2022/02/23 03:23:46;;;;;;;0.80;0.80;;;;;;;;;;5029635;28;20052;-83
2022/02/23 03:26:14;;;;;;;1.58;1.13;;;;;;;;;;5029905;28;20048;-84
2022/02/23 03:28:43;;;;;;;1.25;1.25;;;;;;;;;;5046309;28;20052;-82
2022/02/23 03:31:13;;;;;;;2.03;1.25;;;;;;;;;;5029452;28;20053;-81
2022/02/23 03:33:45;;;;;;;1.98;0.80;;;;;;;;;;5047237;28;20558;-82
2022/02/23 03:36:14;;;;;;;1.67;1.58;;;;;;;;;;5046878;28;20064;-81
2022/02/23 03:38:43;;;;;;;4.68;1.63;;;;;;;;;;5047182;28;20064;-83
2022/02/23 03:41:11;;;;;;;1.10;1.10;;;;;;;;;;5046873;28;20049;-81
2022/02/23 03:43:39;;;;;;;1.45;0.98;;;;;;;;;;5046107;28;20044;-82
2022/02/23 03:46:08;;;;;;;0.98;0.90;;;;;;;;;;5047580;28;20072;-83
2022/02/23 03:48:39;;;;;;;3.38;1.00;;;;;;;;;;5028817;28;20060;-84
2022/02/23 03:51:07;;;;;;;1.17;1.17;;;;;;;;;;5046155;28;20061;-83
2022/02/23 03:53:36;;;;;;;1.27;0.90;;;;;;;;;;5028773;28;20052;-82
2022/02/23 03:56:38;;;;;;;1.05;1.05;;;;;;;;;;5044043;28;20055;-84
2022/02/23 03:58:52;;;;;;;1.40;1.10;;;;;;;;;;5008432;28;20056;-83
2022/02/23 04:01:20;;;;;;;1.40;1.30;;;;;;;;;;5009127;28;20045;-83
2022/02/23 04:03:48;;;;;;;3.38;2.60;;;;;;;;;;5026917;28;20049;-82
2022/02/23 04:06:16;;;;;;;1.63;1.20;;;;;;;;;;5027466;28;20050;-82
2022/02/23 04:08:44;;;;;;;1.67;1.58;;;;;;;;;;5026008;28;20042;-81
2022/02/23 04:11:12;;;;;;;2.50;1.90;;;;;;;;;;5031123;28;20053;-80
2022/02/23 04:13:40;;;;;;;1.95;1.77;;;;;;;;;;5045411;28;20056;-80
2022/02/23 04:16:08;;;;;;;3.63;1.73;;;;;;;;;;5046521;28;20056;-81
2022/02/23 04:18:36;;;;;;;1.88;1.00;;;;;;;;;;5046615;28;20053;-79
2022/02/23 04:21:04;;;;;;;2.58;1.50;;;;;;;;;;5046202;28;20045;-81
2022/02/23 04:23:32;;;;;;;1.83;1.33;;;;;;;;;;5046197;28;20055;-80
2022/02/23 04:26:00;;;;;;;2.72;1.50;;;;;;;;;;5046727;28;20052;-81
2022/02/23 04:28:31;;;;;;;1.25;1.15;;;;;;;;;;5045465;28;20059;-80
2022/02/23 04:30:59;;;;;;;1.92;0.88;;;;;;;;;;5049758;28;20055;-80
2022/02/23 04:33:27;;;;;;;1.25;1.15;;;;;;;;;;5066057;28;20532;-80
2022/02/23 04:35:55;;;;;;;2.10;1.45;;;;;;;;;;5065920;28;20063;-79
2022/02/23 04:38:23;;;;;;;1.00;1.00;;;;;;;;;;5065420;28;20414;-82
2022/02/23 04:40:52;;;;;;;1.02;1.02;;;;;;;;;;5050117;28;20053;-79
2022/02/23 04:43:20;;;;;;;2.88;2.35;;;;;;;;;;5045566;28;20402;-78
2022/02/23 04:45:51;;;;;;;1.13;1.13;;;;;;;;;;5046062;28;20552;-80
2022/02/23 04:48:19;;;;;;;1.60;1.27;;;;;;;;;;5045225;28;20604;-79
2022/02/23 04:50:47;;;;;;;5.97;1.58;;;;;;;;;;5046257;28;20055;-80
2022/02/23 04:53:15;;;;;;;2.03;1.92;;;;;;;;;;5045728;28;20064;-81
2022/02/23 04:55:43;;;;;;;1.10;1.10;;;;;;;;;;5045833;28;20045;-79
2022/02/23 04:58:11;;;;;;;1.83;1.73;;;;;;;;;;5027367;28;20054;-80
2022/02/23 05:00:41;;;;;;;0.90;0.90;;;;;;;;;;5025211;28;20045;-81
2022/02/23 05:03:09;;;;;;;2.75;0.93;;;;;;;;;;5026607;28;20494;-81
2022/02/23 05:05:37;;;;;;;1.13;1.13;;;;;;;;;;5026098;28;20628;-79
2022/02/23 05:08:05;;;;;;;4.65;1.15;;;;;;;;;;5024897;28;20049;-85
2022/02/23 05:10:33;;;;;;;4.60;1.20;;;;;;;;;;5041011;28;20053;-85
2022/02/23 05:13:01;;;;;;;3.40;1.98;;;;;;;;;;5065006;28;20403;-84
2022/02/23 05:15:30;;;;;;;1.67;1.20;;;;;;;;;;5044914;28;20052;-81
2022/02/23 05:18:07;;;;;;;0.90;0.90;;;;;;;;;;5045904;28;20498;-84
2022/02/23 05:20:35;;;;;;;;;;;;;;;;;;5046257;28;20053;-82
2022/02/23 05:23:05;;;;;;;1.58;1.27;;;;;;;;;;5044530;28;19932;-84
2022/02/23 05:25:34;;;;;;;4.50;1.13;;;;;;;;;;5025971;28;20050;-83
2022/02/23 05:28:04;;;;;;;3.33;3.03;;;;;;;;;;5025812;28;20049;-83
2022/02/23 05:30:32;;;;;;;0.70;0.70;;;;;;;;;;5040542;28;20079;-84
2022/02/23 05:33:00;;;;;;;2.20;2.00;;;;;;;;;;5049099;28;20402;-83
2022/02/23 05:35:29;;;;;;;0.80;0.80;;;;;;;;;;5057201;28;20049;-83
2022/02/23 05:37:56;;;;;;;1.63;1.20;;;;;;;;;;5049439;28;20060;-81
2022/02/23 05:40:25;;;;;;;3.88;1.08;;;;;;;;;;5049326;28;20493;-82
2022/02/23 05:42:56;;;;;;;2.13;1.92;;;;;;;;;;5049935;28;20049;-80
2022/02/23 05:45:29;;;;;;;9.82;2.72;;;;;;;;;;5048232;28;20053;-80
2022/02/23 05:47:57;;;;;;;2.47;1.10;;;;;;;;;;5049299;28;20060;-81
2022/02/23 05:50:25;;;;;;;1.40;1.30;;;;;;;;;;5053325;28;20494;-80
2022/02/23 05:52:58;;;;;;;2.25;2.05;;;;;;;;;;5052511;28;20052;-82
2022/02/23 05:55:26;;;;;;;10.95;1.17;;;;;;;;;;5060005;28;20044;-83
2022/02/23 05:57:54;;;;;;;4.05;1.40;;;;;;;;;;5033615;28;20425;-83
2022/02/23 06:00:22;;;;;;;3.33;1.80;;;;;;;;;;5028297;28;20049;-82
2022/02/23 06:02:51;;;;;;;5.60;2.28;;;;;;;;;;5052453;28;20051;-81
2022/02/23 06:05:21;;;;;;;2.28;1.52;;;;;;;;;;5047069;28;20037;-80
2022/02/23 06:07:49;;;;;;;4.20;2.08;;;;;;;;;;4998828;28;20482;-81
2022/02/23 06:10:24;;;;;;;1.20;1.10;;;;;;;;;;5050250;28;20049;-81
2022/02/23 06:12:52;;;;;;;7.32;1.23;;;;;;;;;;5013862;28;20053;-81
2022/02/23 06:15:20;;;;;;;1.88;1.63;;;;;;;;;;5014604;28;20486;-80
2022/02/23 06:17:48;;;;;;;6.32;1.20;;;;;;;;;;5030512;28;20053;-75
2022/02/23 06:20:19;;;;;;;2.53;1.17;;;;;;;;;;5029690;28;20052;-76
2022/02/23 06:22:47;;;;;;;4.60;1.48;;;;;;;;;;5047461;28;20049;-76
2022/02/23 06:25:14;;;;;;;1.15;1.00;;;;;;;;;;5047332;28;20409;-80
2022/02/23 06:27:43;;;;;;;1.90;1.30;;;;;;;;;;5011744;28;20049;-80
2022/02/23 06:30:11;;;;;;;3.47;1.35;;;;;;;;;;5048925;28;20053;-80
2022/02/23 06:32:39;;;;;;;3.17;1.05;;;;;;;;;;5048654;28;20041;-81
2022/02/23 06:35:07;;;;;;;1.48;1.38;;;;;;;;;;5030351;28;20047;-82
2022/02/23 06:37:36;;;;;;;1.08;1.08;;;;;;;;;;5021055;28;20061;-81
2022/02/23 06:40:08;;;;;;;5.00;0.90;;;;;;;;;;5048474;28;20056;-83
2022/02/23 06:42:39;;;;;;;1.40;1.30;;;;;;;;;;5047800;28;20064;-83
2022/02/23 06:45:08;;;;;;;1.10;1.00;;;;;;;;;;5047753;28;20041;-83
2022/02/23 06:47:36;;;;;;;1.15;1.15;;;;;;;;;;5048200;28;20510;-83
2022/02/23 06:50:06;;;;;;;0.95;0.95;;;;;;;;;;5048759;28;20056;-83
2022/02/23 06:52:35;;;;;;;12.57;3.90;;;;;;;;;;5048365;28;20498;-83
2022/02/23 06:55:11;;;;;;;16.02;3.28;;;;;;;;;;5049163;28;20052;-83
2022/02/23 06:57:40;;;;;;;1.25;1.15;;;;;;;;;;5034434;28;20064;-83
2022/02/23 07:00:09;;;;;;;2.45;2.35;;;;;;;;;;5027486;28;20053;-83
2022/02/23 07:02:40;;;;;;;3.65;1.88;;;;;;;;;;5010501;28;20399;-80
2022/02/23 07:05:08;;;;;;;1.98;1.70;;;;;;;;;;5027823;28;20258;-83
2022/02/23 07:07:36;;;;;;;4.47;1.33;;;;;;;;;;5027166;28;20403;-81
2022/02/23 07:10:11;;;;;;;1.52;1.42;;;;;;;;;;5046175;28;20056;-82
2022/02/23 07:12:40;;;;;;;6.38;2.05;;;;;;;;;;5056184;28;20045;-82
2022/02/23 07:15:11;;;;;;;1.35;1.25;;;;;;;;;;5066487;28;20044;-81
2022/02/23 07:17:40;;;;;;;3.15;1.20;;;;;;;;;;5066829;28;20079;-82
2022/02/23 07:20:09;;;;;;;1.75;1.20;;;;;;;;;;5062667;28;20840;-81
2022/02/23 07:22:39;;;;;;;5.50;1.75;;;;;;;;;;5047527;28;20053;-82
2022/02/23 07:25:07;;;;;;;3.00;1.23;;;;;;;;;;5046837;28;20049;-81
2022/02/23 07:27:37;;;;;;;2.55;1.98;;;;;;;;;;5047005;28;20052;-82
2022/02/23 07:30:06;;;;;;;3.17;1.52;;;;;;;;;;5046891;28;20052;-81
2022/02/23 07:32:34;;;;;;;6.03;1.42;;;;;;;;;;5027537;28;20846;-80
2022/02/23 07:35:04;;;;;;;3.88;2.28;;;;;;;;;;5047214;28;20045;-81
2022/02/23 07:37:33;;;;;;;2.05;1.35;;;;;;;;;;5029082;28;20079;-81
2022/02/23 07:40:03;;;;;;;6.43;2.45;;;;;;;;;;5046245;28;20072;-80
2022/02/23 07:42:51;;;;;;;3.53;2.15;;;;;;;;;;5047354;28;20059;-80
2022/02/23 07:45:32;;;;;;;2.97;2.10;;;;;;;;;;5046095;28;20059;-80
2022/02/23 07:48:02;;;;;;;19.25;2.80;;;;;;;;;;5046124;28;20056;-80
2022/02/23 07:50:31;;;;;;;2.50;1.95;;;;;;;;;;5047178;28;20053;-80
2022/02/23 07:52:59;;;;;;;4.00;2.35;;;;;;;;;;5034141;28;20056;-80
2022/02/23 07:55:29;;;;;;;6.30;1.65;;;;;;;;;;5010008;28;20056;-80
2022/02/23 07:57:58;;;;;;;4.65;3.13;;;;;;;;;;5030365;28;20061;-81
2022/02/23 08:00:27;;;;;;;3.17;2.95;;;;;;;;;;4991552;28;20808;-81
2022/02/23 08:02:55;;;;;;;6.40;2.00;;;;;;;;;;5027156;28;20057;-83
2022/02/23 08:05:24;;;;;;;3.78;1.58;;;;;;;;;;5025132;28;20045;-81
2022/02/23 08:07:55;;;;;;;4.50;2.33;;;;;;;;;;5026237;28;20406;-82
2022/02/23 08:10:26;;;;;;;2.73;2.23;;;;;;;;;;5026447;28;20057;-82
2022/02/23 08:12:58;;;;;;;8.55;2.30;;;;;;;;;;5026320;28;20291;-82
2022/02/23 08:21:01;;;;;;;5.55;1.90;;;;;;;;;;5026414;28;20054;-82
2022/02/23 08:23:29;;;;;;;3.50;1.13;;;;;;;;;;5026049;28;20049;-82
2022/02/23 08:25:57;;;;;;;1.77;1.67;;;;;;;;;;5038066;28;20056;-82
2022/02/23 08:28:25;;;;;;;1.73;1.63;;;;;;;;;;5024193;28;20068;-82
2022/02/23 08:30:53;;;;;;;4.28;2.03;;;;;;;;;;5046478;28;20049;-83
2022/02/23 08:33:21;;;;;;;2.65;2.45;;;;;;;;;;5045347;28;20053;-82
2022/02/23 08:35:49;;;;;;;2.97;2.15;;;;;;;;;;5028122;28;20051;-83
2022/02/23 08:38:17;;;;;;;3.15;1.27;;;;;;;;;;5028580;28;20481;-83
2022/02/23 08:40:45;;;;;;;2.30;2.05;;;;;;;;;;5046017;28;20406;-84
2022/02/23 08:43:13;;;;;;;1.70;1.60;;;;;;;;;;5044400;28;20048;-82
2022/02/23 08:45:42;;;;;;;2.35;1.67;;;;;;;;;;5045298;28;20052;-83
2022/02/23 08:48:10;;;;;;;5.45;2.42;;;;;;;;;;5043790;28;20056;-82
2022/02/23 08:50:38;;;;;;;12.98;1.83;;;;;;;;;;5028036;28;20418;-79
2022/02/23 08:53:06;;;;;;;4.18;2.20;;;;;;;;;;5027335;28;20052;-78
2022/02/23 08:55:35;;;;;;;4.45;2.28;;;;;;;;;;5045756;28;20056;-78
2022/02/23 08:58:03;;;;;;;5.90;1.67;;;;;;;;;;5028567;28;20041;-83
2022/02/23 09:00:31;;;;;;;8.73;1.63;;;;;;;;;;5007905;28;20053;-83
2022/02/23 09:03:01;;;;;;;2.22;2.03;;;;;;;;;;5008946;28;20049;-82
2022/02/23 09:05:30;;;;;;;3.97;1.98;;;;;;;;;;4991795;28;20062;-82
2022/02/23 09:12:44;;;;;;;16.60;2.25;;;;;;;;;;4973793;28;20050;-85
2022/02/23 09:32:41;;;;;;;2.83;1.80;;;;;;;;;;4829637;29;20198;-86
2022/02/23 09:40:05;;;;;;;2.55;1.40;;;;;;;;;;4849880;29;20881;-87
2022/02/23 09:43:04;;;;;;;5.07;1.48;;;;;;;;;;4854912;29;20053;-87
2022/02/23 09:46:12;;;;;;;;;;;;;;;;;;;;;
2022/02/23 09:50:52;;;;;;;6.45;2.40;;;;;;;;;;4921479;29;20055;-87
2022/02/23 10:03:39;;;;;;;;;;;;;;;;;;;;;
2022/02/23 10:16:10;;;;;;;6.15;1.58;;;;;;;;;;4945172;29;20044;-85
2022/02/23 10:28:22;;;;;;;1.83;1.20;;;;;;;;;;4868406;29;20190;-85
2022/02/23 10:31:00;;;;;;;7.68;1.67;;;;;;;;;;4865139;29;20060;-86
2022/02/23 10:33:28;;;;;;;5.28;2.85;;;;;;;;;;4897703;29;20062;-86
2022/02/23 10:36:43;;;;;;;;;;;;;;;;;;;;;
2022/02/23 10:39:48;;;;;;;2.75;1.65;;;;;;;;;;4927918;29;20059;-86
2022/02/23 10:42:39;;;;;;;4.18;1.88;;;;;;;;;;4931970;29;20066;-87
2022/02/23 10:45:50;;;;;;;13.43;2.50;;;;;;;;;;4919783;29;20051;-87
2022/02/23 10:48:53;;;;;;;6.07;4.22;;;;;;;;;;4949216;28;20449;-86
2022/02/23 11:00:54;;;;;;;;;;;;;;;;;;;;;
2022/02/23 11:03:43;;;;;;;6.47;2.15;;;;;;;;;;4947255;28;20062;-86
2022/02/23 11:14:42;;;;;;;3.45;1.45;;;;;;;;;;4996763;28;20402;-88
2022/02/23 11:17:58;;;;;;;4.00;1.33;;;;;;;;;;5017044;28;20824;-88
2022/02/23 11:21:43;;;;;;;1.85;1.55;;;;;;;;;;4916386;28;20050;-87
2022/02/23 11:31:29;;;;;;;8.63;2.72;;;;;;;;;;5026208;28;20048;-85
2022/02/23 11:34:30;;;;;;;1.40;1.10;;;;;;;;;;5026868;28;20049;-87
2022/02/23 11:38:31;;;;;;;2.58;1.25;;;;;;;;;;5000072;28;20494;-87
2022/02/23 11:41:38;;;;;;;1.67;1.58;;;;;;;;;;5026760;28;20049;-85
2022/02/23 11:44:11;;;;;;;10.55;2.20;;;;;;;;;;5026494;28;20052;-86
2022/02/23 11:47:01;;;;;;;2.47;2.22;;;;;;;;;;5027401;28;20061;-87
2022/02/23 11:49:40;;;;;;;3.38;1.33;;;;;;;;;;5026932;28;20518;-86
2022/02/23 11:52:19;;;;;;;6.88;0.88;;;;;;;;;;5013719;28;20044;-86
2022/02/23 11:55:16;;;;;;;5.18;1.27;;;;;;;;;;5029357;28;20056;-82
2022/02/23 11:57:53;;;;;;;6.10;1.33;;;;;;;;;;5006352;28;20050;-85
2022/02/23 12:00:31;;;;;;;2.47;1.45;;;;;;;;;;5021856;28;20057;-83
2022/02/23 12:03:01;;;;;;;2.88;1.23;;;;;;;;;;5007993;28;20058;-84
2022/02/23 12:05:34;;;;;;;2.80;2.17;;;;;;;;;;4995128;28;20054;-84
2022/02/23 12:08:48;;;;;;;2.00;1.05;;;;;;;;;;5004051;28;20057;-85
2022/02/23 12:15:46;;;;;;;1.15;1.08;;;;;;;;;;5002748;28;20054;-86
2022/02/23 12:19:43;;;;;;;1.08;1.02;;;;;;;;;;5002593;28;20045;-87
2022/02/23 12:23:10;;;;;;;8.10;1.77;;;;;;;;;;5015762;28;20045;-85
2022/02/23 12:26:39;;;;;;;;;;;;;;;;;;;;;
2022/02/23 12:33:36;;;;;;;1.77;1.67;;;;;;;;;;4989179;28;20037;-86
2022/02/23 12:36:40;;;;;;;7.78;1.73;;;;;;;;;;4995430;28;20056;-86
2022/02/23 12:39:10;;;;;;;3.80;1.13;;;;;;;;;;5024365;28;20041;-86
2022/02/23 12:46:17;;;;;;;1.50;1.40;;;;;;;;;;4975760;28;20048;-86
2022/02/23 12:48:45;;;;;;;2.88;1.55;;;;;;;;;;4988364;28;20041;-88
2022/02/23 12:51:19;;;;;;;3.30;1.13;;;;;;;;;;4973315;28;20056;-88
2022/02/23 12:53:58;;;;;;;1.35;1.05;;;;;;;;;;5011512;28;20501;-87
2022/02/23 13:04:14;;;;;;;4.00;2.25;;;;;;;;;;5423600;24;20054;-86
2022/02/23 13:10:43;;;;;;;1.02;0.93;;;;;;;;;;3147987;27;20062;-87
2022/02/23 13:13:41;;;;;;;0.70;0.70;;;;;;;;;;4811654;29;20050;-85
2022/02/23 13:16:38;;;;;;;5.47;1.48;;;;;;;;;;4805883;29;20050;-86
2022/02/23 13:19:29;;;;;;;2.35;1.67;;;;;;;;;;4832956;29;20064;-87
2022/02/23 13:21:59;;;;;;;7.15;2.67;;;;;;;;;;4837560;29;20049;-85
2022/02/23 13:24:37;;;;;;;1.25;1.15;;;;;;;;;;4841494;29;20139;-86
2022/02/23 13:28:20;;;;;;;2.72;1.30;;;;;;;;;;4819383;29;20429;-87
2022/02/23 13:30:45;;;;;;;1.90;1.23;;;;;;;;;;4819899;29;20061;-86
2022/02/23 13:33:17;;;;;;;1.75;1.00;;;;;;;;;;4844150;29;20050;-89
2022/02/23 13:35:49;;;;;;;1.45;1.35;;;;;;;;;;4833147;29;20057;-78
2022/02/23 13:38:45;;;;;;;2.90;1.15;;;;;;;;;;4833119;29;20050;-87
2022/02/23 13:41:52;;;;;;;4.22;1.90;;;;;;;;;;4821209;29;20049;-77
2022/02/23 13:44:21;;;;;;;0.93;0.88;;;;;;;;;;4851843;29;20073;-78
2022/02/23 13:47:00;;;;;;;5.13;2.40;;;;;;;;;;4851657;29;20066;-78
2022/02/23 13:49:28;;;;;;;3.08;1.98;;;;;;;;;;4836519;29;20054;-75
2022/02/23 13:51:57;;;;;;;2.58;1.27;;;;;;;;;;4850054;29;20057;-75
2022/02/23 13:54:25;;;;;;;4.00;1.80;;;;;;;;;;4851776;29;20494;-75
2022/02/23 13:56:53;;;;;;;1.85;1.08;;;;;;;;;;4847968;29;20046;-76
2022/02/23 13:59:41;;;;;;;2.65;0.85;;;;;;;;;;4843772;29;20050;-77
2022/02/23 14:02:13;;;;;;;1.48;1.17;;;;;;;;;;4856888;29;20053;-78
2022/02/23 14:04:43;;;;;;;1.15;1.05;;;;;;;;;;4856925;29;20050;-80
2022/02/23 14:07:25;;;;;;;0.70;0.70;;;;;;;;;;4857167;29;20076;-78
2022/02/23 14:09:53;;;;;;;0.70;0.70;;;;;;;;;;4825593;29;20440;-78
2022/02/23 14:12:20;;;;;;;8.43;1.60;;;;;;;;;;4856782;29;20823;-78
2022/02/23 14:14:48;;;;;;;5.90;1.27;;;;;;;;;;4856453;29;20069;-78
2022/02/23 14:17:21;;;;;;;1.52;1.27;;;;;;;;;;4856155;29;20496;-78
2022/02/23 14:19:50;;;;;;;2.13;0.95;;;;;;;;;;4856369;29;20053;-78
2022/02/23 14:22:21;;;;;;;2.05;1.23;;;;;;;;;;4856950;29;20804;-78
2022/02/23 14:24:57;;;;;;;6.85;1.50;;;;;;;;;;4839619;29;20065;-78
2022/02/23 14:27:27;;;;;;;6.28;2.42;;;;;;;;;;4839546;29;20510;-78
2022/02/23 14:30:20;;;;;;;1.00;0.73;;;;;;;;;;4856160;29;20053;-79
2022/02/23 14:32:48;;;;;;;1.33;1.17;;;;;;;;;;4839918;29;20058;-79
2022/02/23 14:35:19;;;;;;;2.55;2.30;;;;;;;;;;4855635;29;20411;-78
2022/02/23 14:37:48;;;;;;;2.47;0.87;;;;;;;;;;4855551;29;20523;-78
2022/02/23 14:40:18;;;;;;;1.58;1.23;;;;;;;;;;4856101;29;20282;-79
2022/02/23 14:42:48;;;;;;;0.77;0.77;;;;;;;;;;4856485;29;20056;-78
2022/02/23 14:45:17;;;;;;;0.70;0.70;;;;;;;;;;4839028;29;20052;-76
2022/02/23 14:47:49;;;;;;;1.30;0.88;;;;;;;;;;4855898;29;20061;-77
2022/02/23 14:50:19;;;;;;;2.50;1.40;;;;;;;;;;4855882;29;20065;-77
2022/02/23 14:52:51;;;;;;;0.80;0.80;;;;;;;;;;4855750;29;20053;-76
2022/02/23 14:55:21;;;;;;;1.70;0.60;;;;;;;;;;4855669;29;20053;-76
2022/02/23 14:57:52;;;;;;;0.88;0.85;;;;;;;;;;4842924;29;20492;-76
2022/02/23 15:00:21;;;;;;;1.35;1.25;;;;;;;;;;4855349;29;20049;-77
2022/02/23 15:02:51;;;;;;;1.52;0.85;;;;;;;;;;4855969;29;20411;-77
2022/02/23 15:05:25;;;;;;;1.60;1.50;;;;;;;;;;4855209;29;20061;-76
2022/02/23 15:07:56;;;;;;;0.85;0.60;;;;;;;;;;4854700;29;20056;-76
2022/02/23 15:10:25;;;;;;;0.68;0.68;;;;;;;;;;4853175;29;20064;-76
2022/02/23 15:12:54;;;;;;;3.22;1.23;;;;;;;;;;4855419;29;20056;-76
2022/02/23 15:15:25;;;;;;;0.70;0.70;;;;;;;;;;4854816;29;20496;-76
2022/02/23 15:17:53;;;;;;;8.93;2.25;;;;;;;;;;4855926;29;20372;-76
2022/02/23 15:20:21;;;;;;;0.63;0.63;;;;;;;;;;4855508;29;20046;-77
2022/02/23 15:22:49;;;;;;;2.22;1.90;;;;;;;;;;4855939;29;20061;-76
2022/02/23 15:25:19;;;;;;;6.15;1.00;;;;;;;;;;4854753;29;20056;-76
2022/02/23 15:27:51;;;;;;;8.15;3.42;;;;;;;;;;4854760;29;20046;-76
2022/02/23 15:30:19;;;;;;;1.13;1.05;;;;;;;;;;4855370;29;20061;-78
2022/02/23 15:32:47;;;;;;;0.60;0.60;;;;;;;;;;4855930;29;20829;-77
2022/02/23 15:35:15;;;;;;;1.13;1.05;;;;;;;;;;4857247;29;20049;-77
2022/02/23 15:37:43;;;;;;;1.05;0.68;;;;;;;;;;4837718;29;20459;-78
2022/02/23 15:40:21;;;;;;;0.77;0.73;;;;;;;;;;4829964;29;20050;-84
2022/02/23 15:42:50;;;;;;;2.22;1.88;;;;;;;;;;4801980;29;20684;-85
2022/02/23 15:45:18;;;;;;;3.88;1.15;;;;;;;;;;4801411;29;20054;-84
2022/02/23 15:47:47;;;;;;;0.70;0.70;;;;;;;;;;4785117;29;20047;-85
2022/02/23 15:50:19;;;;;;;0.90;0.90;;;;;;;;;;4760565;29;20061;-84
2022/02/23 15:52:47;;;;;;;6.07;1.37;;;;;;;;;;4776476;29;20050;-85
2022/02/23 15:55:15;;;;;;;0.70;0.70;;;;;;;;;;4801451;29;20062;-86
2022/02/23 15:57:44;;;;;;;0.70;0.70;;;;;;;;;;4803154;29;20042;-87
2022/02/23 16:00:14;;;;;;;2.42;1.30;;;;;;;;;;4813589;29;20131;-88
2022/02/23 16:02:43;;;;;;;0.88;0.60;;;;;;;;;;4813124;29;20062;-88
2022/02/23 16:05:14;;;;;;;1.55;1.10;;;;;;;;;;4797568;29;20046;-87
2022/02/23 16:07:42;;;;;;;0.85;0.65;;;;;;;;;;4815676;29;20050;-87
2022/02/23 16:10:10;;;;;;;1.45;1.35;;;;;;;;;;4815794;29;20576;-75
2022/02/23 16:12:38;;;;;;;2.60;1.15;;;;;;;;;;4828885;29;20057;-82
2022/02/23 16:15:06;;;;;;;1.95;1.27;;;;;;;;;;4854453;29;20053;-82
2022/02/23 16:17:35;;;;;;;3.13;1.60;;;;;;;;;;4822815;29;20057;-82
2022/02/23 16:20:24;;;;;;;1.55;0.60;;;;;;;;;;4838101;29;20807;-82
2022/02/23 16:22:52;;;;;;;0.50;0.50;;;;;;;;;;4838690;29;20061;-82
2022/02/23 16:25:22;;;;;;;3.30;0.50;;;;;;;;;;4854493;29;20064;-82
2022/02/23 16:27:51;;;;;;;0.80;0.80;;;;;;;;;;4837688;29;20279;-82
2022/02/23 16:30:22;;;;;;;0.50;0.50;;;;;;;;;;4854264;29;20574;-82
2022/02/23 16:32:50;;;;;;;0.50;0.50;;;;;;;;;;4837951;29;20512;-84
2022/02/23 16:35:18;;;;;;;2.15;0.70;;;;;;;;;;4824041;29;20487;-82
2022/02/23 16:37:46;;;;;;;3.20;1.80;;;;;;;;;;4818576;29;20058;-82
2022/02/23 16:40:14;;;;;;;0.70;0.70;;;;;;;;;;4834434;29;20053;-82
2022/02/23 16:42:42;;;;;;;1.00;1.00;;;;;;;;;;4836504;29;20054;-83
2022/02/23 16:45:10;;;;;;;2.97;0.93;;;;;;;;;;4803587;29;20058;-83
2022/02/23 16:47:45;;;;;;;3.40;0.80;;;;;;;;;;4818891;29;20137;-86
2022/02/23 16:50:17;;;;;;;1.10;0.90;;;;;;;;;;4806086;29;20057;-83
2022/02/23 16:52:46;;;;;;;4.57;2.17;;;;;;;;;;4835246;29;20053;-82
2022/02/23 16:55:16;;;;;;;3.05;0.88;;;;;;;;;;4854985;29;20060;-82
2022/02/23 16:57:46;;;;;;;1.77;1.27;;;;;;;;;;4847626;29;20049;-82
2022/02/23 17:00:16;;;;;;;1.70;1.60;;;;;;;;;;4837045;29;20046;-82
2022/02/23 17:02:47;;;;;;;2.05;0.90;;;;;;;;;;4855067;29;20511;-82
2022/02/23 17:05:16;;;;;;;0.77;0.77;;;;;;;;;;4838105;29;20590;-81
2022/02/23 17:07:45;;;;;;;2.50;1.25;;;;;;;;;;4822232;29;20558;-82
2022/02/23 17:10:19;;;;;;;3.15;1.45;;;;;;;;;;4804530;29;20050;-82
2022/02/23 17:12:51;;;;;;;0.65;0.65;;;;;;;;;;4819528;29;20050;-82
2022/02/23 17:15:21;;;;;;;1.65;0.88;;;;;;;;;;4836069;29;20050;-82
2022/02/23 17:17:53;;;;;;;3.08;1.40;;;;;;;;;;4804146;29;20075;-82